sensor_id;sensor_type;location;lat;lon;timestamp;pressure;altitude;pressure_sealevel;temperature;humidity
37860;BME280;23698;52.014;5.190;2023-02-22T00:00:23;101423.16;;;10.04;100.00
37860;BME280;23698;52.014;5.190;2023-02-22T00:03:15;101435.09;;;9.61;100.00
37860;BME280;23698;52.014;5.190;2023-02-22T00:06:04;101424.75;;;9.65;100.00
37860;BME280;23698;52.014;5.190;2023-02-22T00:08:51;101429.66;;;9.70;100.00
37860;BME280;23698;52.014;5.190;2023-02-22T00:11:44;101426.59;;;9.81;100.00
37860;BME280;23698;52.014;5.190;2023-02-22T00:14:31;101421.66;;;10.80;100.00
37860;BME280;23698;52.014;5.190;2023-02-22T00:17:20;101427.16;;;10.64;100.00
37860;BME280;23698;52.014;5.190;2023-02-22T00:20:07;101421.66;;;10.49;100.00
37860;BME280;23698;52.014;5.190;2023-02-22T00:23:00;101427.84;;;10.10;100.00
37860;BME280;23698;52.014;5.190;2023-02-22T00:25:48;101421.94;;;10.14;100.00
37860;BME280;23698;52.014;5.190;2023-02-22T00:28:36;101414.84;;;10.05;100.00
37860;BME280;23698;52.014;5.190;2023-02-22T00:31:23;101414.84;;;10.53;100.00
37860;BME280;23698;52.014;5.190;2023-02-22T00:34:12;101415.78;;;10.37;100.00
37860;BME280;23698;52.014;5.190;2023-02-22T00:36:59;101411.69;;;9.85;100.00
37860;BME280;23698;52.014;5.190;2023-02-22T00:39:47;101405.00;;;10.12;100.00
37860;BME280;23698;52.014;5.190;2023-02-22T00:42:35;101406.97;;;9.71;100.00
37860;BME280;23698;52.014;5.190;2023-02-22T00:45:23;101407.41;;;10.07;100.00
37860;BME280;23698;52.014;5.190;2023-02-22T00:48:10;101397.97;;;9.95;100.00
37860;BME280;23698;52.014;5.190;2023-02-22T00:50:58;101404.16;;;9.48;100.00
37860;BME280;23698;52.014;5.190;2023-02-22T00:53:47;101401.56;;;9.62;100.00
37860;BME280;23698;52.014;5.190;2023-02-22T00:56:34;101397.16;;;9.78;100.00
37860;BME280;23698;52.014;5.190;2023-02-22T00:59:20;101395.59;;;9.92;100.00
37860;BME280;23698;52.014;5.190;2023-02-22T01:02:07;101389.19;;;10.32;100.00
37860;BME280;23698;52.014;5.190;2023-02-22T01:04:54;101389.94;;;10.10;100.00
37860;BME280;23698;52.014;5.190;2023-02-22T01:07:43;101393.44;;;9.79;100.00
37860;BME280;23698;52.014;5.190;2023-02-22T01:10:30;101397.63;;;10.69;100.00
37860;BME280;23698;52.014;5.190;2023-02-22T01:13:17;101405.53;;;10.55;100.00
37860;BME280;23698;52.014;5.190;2023-02-22T01:16:04;101410.63;;;10.50;100.00
37860;BME280;23698;52.014;5.190;2023-02-22T01:18:52;101408.97;;;9.93;100.00
37860;BME280;23698;52.014;5.190;2023-02-22T01:21:39;101404.63;;;11.09;100.00
37860;BME280;23698;52.014;5.190;2023-02-22T01:24:27;101409.31;;;10.69;100.00
37860;BME280;23698;52.014;5.190;2023-02-22T01:27:14;101393.66;;;10.17;100.00
37860;BME280;23698;52.014;5.190;2023-02-22T01:30:03;101389.19;;;10.32;100.00
37860;BME280;23698;52.014;5.190;2023-02-22T01:32:53;101401.81;;;10.09;100.00
37860;BME280;23698;52.014;5.190;2023-02-22T01:35:40;101410.34;;;10.37;100.00
37860;BME280;23698;52.014;5.190;2023-02-22T01:38:27;101410.34;;;9.81;100.00
37860;BME280;23698;52.014;5.190;2023-02-22T01:41:15;101396.22;;;10.10;100.00
37860;BME280;23698;52.014;5.190;2023-02-22T01:44:17;101395.72;;;10.77;100.00
37860;BME280;23698;52.014;5.190;2023-02-22T01:47:05;101391.06;;;10.32;100.00
37860;BME280;23698;52.014;5.190;2023-02-22T01:49:53;101388.25;;;10.80;100.00
37860;BME280;23698;52.014;5.190;2023-02-22T01:52:41;101387.88;;;10.60;100.00
37860;BME280;23698;52.014;5.190;2023-02-22T01:55:27;101387.75;;;10.76;100.00
37860;BME280;23698;52.014;5.190;2023-02-22T01:58:17;101389.25;;;10.55;100.00
37860;BME280;23698;52.014;5.190;2023-02-22T02:01:04;101384.38;;;10.51;100.00
37860;BME280;23698;52.014;5.190;2023-02-22T02:03:55;101384.88;;;10.07;100.00
37860;BME280;23698;52.014;5.190;2023-02-22T02:06:44;101382.66;;;10.10;100.00
37860;BME280;23698;52.014;5.190;2023-02-22T02:09:35;101383.91;;;10.39;100.00
37860;BME280;23698;52.014;5.190;2023-02-22T02:12:26;101374.16;;;9.57;100.00
37860;BME280;23698;52.014;5.190;2023-02-22T02:15:25;101372.66;;;10.19;100.00
37860;BME280;23698;52.014;5.190;2023-02-22T02:18:13;101370.28;;;10.79;100.00
37860;BME280;23698;52.014;5.190;2023-02-22T02:21:21;101374.84;;;10.55;100.00
37860;BME280;23698;52.014;5.190;2023-02-22T02:27:59;101367.66;;;10.39;100.00
37860;BME280;23698;52.014;5.190;2023-02-22T02:31:12;101362.91;;;11.63;100.00
37860;BME280;23698;52.014;5.190;2023-02-22T02:34:11;101365.28;;;11.51;100.00
37860;BME280;23698;52.014;5.190;2023-02-22T02:37:10;101358.03;;;11.29;100.00
37860;BME280;23698;52.014;5.190;2023-02-22T02:40:02;101353.28;;;10.62;100.00
37860;BME280;23698;52.014;5.190;2023-02-22T02:42:59;101347.41;;;12.02;100.00
37860;BME280;23698;52.014;5.190;2023-02-22T02:45:53;101351.53;;;13.14;100.00
37860;BME280;23698;52.014;5.190;2023-02-22T02:48:46;101343.66;;;11.73;100.00
37860;BME280;23698;52.014;5.190;2023-02-22T02:51:40;101351.72;;;11.96;100.00
37860;BME280;23698;52.014;5.190;2023-02-22T02:54:27;101343.63;;;11.43;100.00
37860;BME280;23698;52.014;5.190;2023-02-22T02:57:14;101344.31;;;10.61;100.00
37860;BME280;23698;52.014;5.190;2023-02-22T03:00:01;101340.19;;;11.94;100.00
37860;BME280;23698;52.014;5.190;2023-02-22T03:03:23;101341.78;;;11.59;100.00
37860;BME280;23698;52.014;5.190;2023-02-22T03:06:34;101333.47;;;11.22;100.00
37860;BME280;23698;52.014;5.190;2023-02-22T03:09:34;101328.44;;;10.18;100.00
37860;BME280;23698;52.014;5.190;2023-02-22T03:12:26;101320.31;;;10.50;100.00
37860;BME280;23698;52.014;5.190;2023-02-22T03:15:31;101328.16;;;11.44;100.00
37860;BME280;23698;52.014;5.190;2023-02-22T03:18:24;101322.63;;;11.22;100.00
37860;BME280;23698;52.014;5.190;2023-02-22T03:21:21;101325.91;;;12.22;100.00
37860;BME280;23698;52.014;5.190;2023-02-22T03:24:15;101320.72;;;10.85;100.00
37860;BME280;23698;52.014;5.190;2023-02-22T03:27:08;101321.06;;;11.58;100.00
37860;BME280;23698;52.014;5.190;2023-02-22T03:30:06;101317.63;;;11.11;100.00
37860;BME280;23698;52.014;5.190;2023-02-22T03:32:57;101310.25;;;10.58;100.00
37860;BME280;23698;52.014;5.190;2023-02-22T03:35:51;101309.25;;;11.36;100.00
37860;BME280;23698;52.014;5.190;2023-02-22T03:38:42;101307.97;;;11.76;100.00
37860;BME280;23698;52.014;5.190;2023-02-22T03:41:34;101302.31;;;10.80;100.00
37860;BME280;23698;52.014;5.190;2023-02-22T03:44:24;101301.50;;;11.47;100.00
37860;BME280;23698;52.014;5.190;2023-02-22T03:47:15;101293.81;;;10.60;100.00
37860;BME280;23698;52.014;5.190;2023-02-22T03:50:08;101306.28;;;11.75;100.00
37860;BME280;23698;52.014;5.190;2023-02-22T03:52:56;101302.25;;;11.41;100.00
37860;BME280;23698;52.014;5.190;2023-02-22T03:55:47;101300.22;;;9.73;100.00
37860;BME280;23698;52.014;5.190;2023-02-22T03:58:37;101287.84;;;9.71;100.00
37860;BME280;23698;52.014;5.190;2023-02-22T04:01:29;101279.59;;;10.35;100.00
37860;BME280;23698;52.014;5.190;2023-02-22T04:04:16;101279.03;;;10.39;100.00
37860;BME280;23698;52.014;5.190;2023-02-22T04:07:03;101270.13;;;10.77;100.00
37860;BME280;23698;52.014;5.190;2023-02-22T04:09:50;101278.16;;;11.23;100.00
37860;BME280;23698;52.014;5.190;2023-02-22T04:12:37;101270.94;;;10.63;100.00
37860;BME280;23698;52.014;5.190;2023-02-22T04:15:25;101266.31;;;10.86;100.00
37860;BME280;23698;52.014;5.190;2023-02-22T04:18:21;101261.50;;;9.96;100.00
37860;BME280;23698;52.014;5.190;2023-02-22T04:21:08;101260.72;;;9.39;100.00
37860;BME280;23698;52.014;5.190;2023-02-22T04:23:59;101253.88;;;9.12;100.00
37860;BME280;23698;52.014;5.190;2023-02-22T04:26:45;101253.13;;;10.14;100.00
37860;BME280;23698;52.014;5.190;2023-02-22T04:29:35;101247.75;;;9.74;100.00
37860;BME280;23698;52.014;5.190;2023-02-22T04:32:24;101240.22;;;9.93;100.00
37860;BME280;23698;52.014;5.190;2023-02-22T04:35:13;101243.53;;;9.72;100.00
37860;BME280;23698;52.014;5.190;2023-02-22T04:38:00;101232.44;;;8.94;100.00
37860;BME280;23698;52.014;5.190;2023-02-22T04:40:49;101229.84;;;9.65;100.00
37860;BME280;23698;52.014;5.190;2023-02-22T04:43:37;101226.25;;;9.73;100.00
37860;BME280;23698;52.014;5.190;2023-02-22T04:46:43;101225.66;;;11.01;100.00
37860;BME280;23698;52.014;5.190;2023-02-22T04:49:32;101223.78;;;9.63;100.00
37860;BME280;23698;52.014;5.190;2023-02-22T04:52:21;101217.59;;;9.38;100.00
37860;BME280;23698;52.014;5.190;2023-02-22T04:55:08;101221.16;;;8.49;100.00
37860;BME280;23698;52.014;5.190;2023-02-22T04:57:55;101206.91;;;9.84;100.00
37860;BME280;23698;52.014;5.190;2023-02-22T05:00:42;101209.63;;;9.44;100.00
37860;BME280;23698;52.014;5.190;2023-02-22T05:03:29;101206.94;;;9.36;100.00
37860;BME280;23698;52.014;5.190;2023-02-22T05:06:16;101202.00;;;9.48;100.00
37860;BME280;23698;52.014;5.190;2023-02-22T05:09:04;101205.47;;;10.66;100.00
37860;BME280;23698;52.014;5.190;2023-02-22T05:11:50;101197.19;;;10.82;100.00
37860;BME280;23698;52.014;5.190;2023-02-22T05:14:37;101202.69;;;9.81;100.00
37860;BME280;23698;52.014;5.190;2023-02-22T05:17:23;101198.38;;;9.64;100.00
37860;BME280;23698;52.014;5.190;2023-02-22T05:20:16;101188.34;;;8.94;100.00
37860;BME280;23698;52.014;5.190;2023-02-22T05:23:06;101197.09;;;9.04;100.00
37860;BME280;23698;52.014;5.190;2023-02-22T05:25:54;101200.88;;;9.34;100.00
37860;BME280;23698;52.014;5.190;2023-02-22T05:28:41;101196.88;;;9.61;100.00
37860;BME280;23698;52.014;5.190;2023-02-22T05:31:27;101191.69;;;9.04;100.00
37860;BME280;23698;52.014;5.190;2023-02-22T05:34:14;101191.31;;;9.15;100.00
37860;BME280;23698;52.014;5.190;2023-02-22T05:37:01;101186.28;;;8.96;100.00
37860;BME280;23698;52.014;5.190;2023-02-22T05:39:47;101185.72;;;9.64;100.00
37860;BME280;23698;52.014;5.190;2023-02-22T05:42:36;101184.81;;;9.72;100.00
37860;BME280;23698;52.014;5.190;2023-02-22T05:45:25;101190.84;;;10.06;100.00
37860;BME280;23698;52.014;5.190;2023-02-22T05:48:11;101182.69;;;9.59;100.00
37860;BME280;23698;52.014;5.190;2023-02-22T05:50:58;101189.91;;;8.63;100.00
37860;BME280;23698;52.014;5.190;2023-02-22T05:53:45;101176.28;;;9.04;100.00
37860;BME280;23698;52.014;5.190;2023-02-22T05:56:31;101168.34;;;9.82;100.00
37860;BME280;23698;52.014;5.190;2023-02-22T05:59:19;101168.25;;;9.67;100.00
37860;BME280;23698;52.014;5.190;2023-02-22T06:02:06;101163.84;;;8.79;100.00
37860;BME280;23698;52.014;5.190;2023-02-22T06:04:53;101165.25;;;9.22;100.00
37860;BME280;23698;52.014;5.190;2023-02-22T06:07:40;101165.22;;;8.66;100.00
37860;BME280;23698;52.014;5.190;2023-02-22T06:10:27;101162.28;;;8.93;100.00
37860;BME280;23698;52.014;5.190;2023-02-22T06:13:14;101156.03;;;9.40;100.00
37860;BME280;23698;52.014;5.190;2023-02-22T06:16:03;101157.34;;;9.13;100.00
37860;BME280;23698;52.014;5.190;2023-02-22T06:18:50;101146.78;;;9.26;100.00
37860;BME280;23698;52.014;5.190;2023-02-22T06:21:36;101150.75;;;8.51;100.00
37860;BME280;23698;52.014;5.190;2023-02-22T06:24:23;101148.84;;;8.76;100.00
37860;BME280;23698;52.014;5.190;2023-02-22T06:27:10;101137.72;;;8.22;100.00
37860;BME280;23698;52.014;5.190;2023-02-22T06:29:57;101134.16;;;8.38;100.00
37860;BME280;23698;52.014;5.190;2023-02-22T06:32:45;101133.50;;;8.44;100.00
37860;BME280;23698;52.014;5.190;2023-02-22T06:35:32;101129.75;;;8.37;100.00
37860;BME280;23698;52.014;5.190;2023-02-22T06:38:22;101121.81;;;8.68;100.00
37860;BME280;23698;52.014;5.190;2023-02-22T06:41:09;101119.19;;;9.70;100.00
37860;BME280;23698;52.014;5.190;2023-02-22T06:43:56;101120.59;;;10.04;100.00
37860;BME280;23698;52.014;5.190;2023-02-22T06:46:46;101119.16;;;8.60;100.00
37860;BME280;23698;52.014;5.190;2023-02-22T06:49:35;101120.63;;;8.71;100.00
37860;BME280;23698;52.014;5.190;2023-02-22T06:52:22;101111.63;;;8.95;100.00
37860;BME280;23698;52.014;5.190;2023-02-22T06:55:10;101104.63;;;8.28;100.00
37860;BME280;23698;52.014;5.190;2023-02-22T06:57:57;101103.88;;;8.83;100.00
37860;BME280;23698;52.014;5.190;2023-02-22T07:00:44;101106.66;;;8.34;100.00
37860;BME280;23698;52.014;5.190;2023-02-22T07:03:31;101104.03;;;8.82;100.00
37860;BME280;23698;52.014;5.190;2023-02-22T07:06:19;101099.78;;;9.81;100.00
37860;BME280;23698;52.014;5.190;2023-02-22T07:09:06;101109.00;;;9.49;100.00
37860;BME280;23698;52.014;5.190;2023-02-22T07:11:53;101114.69;;;8.83;100.00
37860;BME280;23698;52.014;5.190;2023-02-22T07:14:40;101111.00;;;8.76;100.00
37860;BME280;23698;52.014;5.190;2023-02-22T07:17:27;101112.19;;;9.21;100.00
37860;BME280;23698;52.014;5.190;2023-02-22T07:20:15;101113.72;;;10.01;100.00
37860;BME280;23698;52.014;5.190;2023-02-22T07:23:04;101112.84;;;9.23;100.00
37860;BME280;23698;52.014;5.190;2023-02-22T07:25:50;101116.94;;;8.63;100.00
37860;BME280;23698;52.014;5.190;2023-02-22T07:28:37;101119.91;;;10.48;100.00
37860;BME280;23698;52.014;5.190;2023-02-22T07:31:24;101137.25;;;9.07;100.00
37860;BME280;23698;52.014;5.190;2023-02-22T07:34:13;101139.63;;;10.19;100.00
37860;BME280;23698;52.014;5.190;2023-02-22T07:37:00;101140.09;;;9.14;100.00
37860;BME280;23698;52.014;5.190;2023-02-22T07:39:49;101134.94;;;9.90;100.00
37860;BME280;23698;52.014;5.190;2023-02-22T07:42:49;101147.16;;;10.09;100.00
37860;BME280;23698;52.014;5.190;2023-02-22T07:45:36;101142.53;;;10.17;100.00
37860;BME280;23698;52.014;5.190;2023-02-22T07:48:25;101146.22;;;9.47;100.00
37860;BME280;23698;52.014;5.190;2023-02-22T07:51:14;101153.03;;;8.79;100.00
37860;BME280;23698;52.014;5.190;2023-02-22T07:54:01;101154.09;;;9.17;100.00
37860;BME280;23698;52.014;5.190;2023-02-22T07:56:49;101147.31;;;9.30;100.00
37860;BME280;23698;52.014;5.190;2023-02-22T07:59:36;101150.09;;;9.76;100.00
37860;BME280;23698;52.014;5.190;2023-02-22T08:02:24;101154.53;;;9.69;100.00
37860;BME280;23698;52.014;5.190;2023-02-22T08:05:13;101153.78;;;10.06;100.00
37860;BME280;23698;52.014;5.190;2023-02-22T08:08:00;101155.03;;;9.41;100.00
37860;BME280;23698;52.014;5.190;2023-02-22T08:10:48;101157.91;;;9.39;100.00
37860;BME280;23698;52.014;5.190;2023-02-22T08:13:37;101149.78;;;9.71;100.00
37860;BME280;23698;52.014;5.190;2023-02-22T08:16:24;101147.34;;;10.07;100.00
37860;BME280;23698;52.014;5.190;2023-02-22T08:19:11;101157.38;;;10.21;100.00
37860;BME280;23698;52.014;5.190;2023-02-22T08:21:58;101161.38;;;10.34;100.00
37860;BME280;23698;52.014;5.190;2023-02-22T08:24:45;101150.94;;;9.45;100.00
37860;BME280;23698;52.014;5.190;2023-02-22T08:27:31;101156.94;;;8.68;100.00
37860;BME280;23698;52.014;5.190;2023-02-22T08:30:22;101151.78;;;9.06;100.00
37860;BME280;23698;52.014;5.190;2023-02-22T08:33:09;101144.28;;;9.24;100.00
37860;BME280;23698;52.014;5.190;2023-02-22T08:35:59;101152.13;;;9.03;100.00
37860;BME280;23698;52.014;5.190;2023-02-22T08:38:46;101142.84;;;8.97;100.00
37860;BME280;23698;52.014;5.190;2023-02-22T08:41:32;101131.81;;;9.78;100.00
37860;BME280;23698;52.014;5.190;2023-02-22T08:44:19;101131.78;;;9.23;100.00
37860;BME280;23698;52.014;5.190;2023-02-22T08:47:10;101129.34;;;8.97;100.00
37860;BME280;23698;52.014;5.190;2023-02-22T08:49:56;101126.38;;;9.15;100.00
37860;BME280;23698;52.014;5.190;2023-02-22T08:52:43;101110.31;;;9.53;100.00
37860;BME280;23698;52.014;5.190;2023-02-22T08:55:32;101103.41;;;9.19;100.00
37860;BME280;23698;52.014;5.190;2023-02-22T08:58:19;101107.88;;;9.35;100.00
37860;BME280;23698;52.014;5.190;2023-02-22T09:01:06;101116.53;;;10.31;100.00
37860;BME280;23698;52.014;5.190;2023-02-22T09:03:55;101119.94;;;11.23;100.00
37860;BME280;23698;52.014;5.190;2023-02-22T09:06:42;101109.34;;;10.38;100.00
37860;BME280;23698;52.014;5.190;2023-02-22T09:09:33;101107.88;;;10.51;100.00
37860;BME280;23698;52.014;5.190;2023-02-22T09:12:20;101116.47;;;9.93;100.00
37860;BME280;23698;52.014;5.190;2023-02-22T09:15:07;101114.22;;;10.20;100.00
37860;BME280;23698;52.014;5.190;2023-02-22T09:17:54;101109.53;;;10.14;100.00
37860;BME280;23698;52.014;5.190;2023-02-22T09:20:43;101100.13;;;10.25;100.00
37860;BME280;23698;52.014;5.190;2023-02-22T09:23:30;101100.16;;;10.39;100.00
37860;BME280;23698;52.014;5.190;2023-02-22T09:26:16;101098.94;;;10.04;100.00
37860;BME280;23698;52.014;5.190;2023-02-22T09:29:04;101092.75;;;9.95;100.00
37860;BME280;23698;52.014;5.190;2023-02-22T09:31:53;101087.88;;;10.14;100.00
37860;BME280;23698;52.014;5.190;2023-02-22T09:34:40;101079.72;;;10.37;100.00
37860;BME280;23698;52.014;5.190;2023-02-22T09:37:31;101076.09;;;10.07;100.00
37860;BME280;23698;52.014;5.190;2023-02-22T09:40:19;101083.56;;;10.19;100.00
37860;BME280;23698;52.014;5.190;2023-02-22T09:43:22;101070.94;;;9.74;100.00
37860;BME280;23698;52.014;5.190;2023-02-22T09:46:21;101077.41;;;10.49;100.00
37860;BME280;23698;52.014;5.190;2023-02-22T09:49:17;101062.63;;;10.51;100.00
37860;BME280;23698;52.014;5.190;2023-02-22T09:52:11;101071.25;;;10.17;100.00
37860;BME280;23698;52.014;5.190;2023-02-22T09:55:07;101074.34;;;10.29;100.00
37860;BME280;23698;52.014;5.190;2023-02-22T09:57:57;101068.28;;;11.74;100.00
37860;BME280;23698;52.014;5.190;2023-02-22T10:00:46;101081.41;;;11.49;100.00
37860;BME280;23698;52.014;5.190;2023-02-22T10:03:47;101079.09;;;11.67;100.00
37860;BME280;23698;52.014;5.190;2023-02-22T10:06:36;101085.47;;;11.60;100.00
37860;BME280;23698;52.014;5.190;2023-02-22T10:09:26;101086.63;;;11.29;100.00
37860;BME280;23698;52.014;5.190;2023-02-22T10:12:23;101081.50;;;11.41;100.00
37860;BME280;23698;52.014;5.190;2023-02-22T10:15:36;101081.97;;;10.78;100.00
37860;BME280;23698;52.014;5.190;2023-02-22T10:24:55;101085.25;;;11.03;100.00
37860;BME280;23698;52.014;5.190;2023-02-22T10:27:47;101081.53;;;11.84;100.00
37860;BME280;23698;52.014;5.190;2023-02-22T10:30:41;101088.81;;;11.98;100.00
37860;BME280;23698;52.014;5.190;2023-02-22T10:33:32;101076.91;;;12.56;100.00
37860;BME280;23698;52.014;5.190;2023-02-22T10:36:22;101090.09;;;12.24;100.00
37860;BME280;23698;52.014;5.190;2023-02-22T10:39:18;101085.03;;;12.77;100.00
37860;BME280;23698;52.014;5.190;2023-02-22T10:42:07;101079.81;;;13.31;100.00
37860;BME280;23698;52.014;5.190;2023-02-22T10:44:55;101083.09;;;12.71;100.00
37860;BME280;23698;52.014;5.190;2023-02-22T10:47:42;101072.50;;;11.77;100.00
37860;BME280;23698;52.014;5.190;2023-02-22T10:50:30;101077.66;;;12.71;100.00
37860;BME280;23698;52.014;5.190;2023-02-22T10:53:17;101097.66;;;12.28;100.00
37860;BME280;23698;52.014;5.190;2023-02-22T10:56:10;101090.81;;;12.68;100.00
37860;BME280;23698;52.014;5.190;2023-02-22T10:59:00;101088.38;;;12.79;100.00
37860;BME280;23698;52.014;5.190;2023-02-22T11:01:50;101087.94;;;12.19;100.00
37860;BME280;23698;52.014;5.190;2023-02-22T11:04:46;101086.84;;;12.14;100.00
37860;BME280;23698;52.014;5.190;2023-02-22T11:07:35;101085.66;;;12.79;100.00
37860;BME280;23698;52.014;5.190;2023-02-22T11:10:30;101100.56;;;12.90;100.00
37860;BME280;23698;52.014;5.190;2023-02-22T11:13:25;101092.44;;;12.05;100.00
37860;BME280;23698;52.014;5.190;2023-02-22T11:16:18;101084.25;;;11.99;100.00
37860;BME280;23698;52.014;5.190;2023-02-22T11:19:18;101086.66;;;12.15;100.00
37860;BME280;23698;52.014;5.190;2023-02-22T11:22:12;101087.66;;;12.99;100.00
37860;BME280;23698;52.014;5.190;2023-02-22T11:25:01;101077.22;;;13.09;100.00
37860;BME280;23698;52.014;5.190;2023-02-22T11:27:52;101079.78;;;12.47;100.00
37860;BME280;23698;52.014;5.190;2023-02-22T11:30:41;101080.41;;;13.19;100.00
37860;BME280;23698;52.014;5.190;2023-02-22T11:33:29;101078.88;;;13.10;100.00
37860;BME280;23698;52.014;5.190;2023-02-22T11:36:33;101071.38;;;14.54;100.00
37860;BME280;23698;52.014;5.190;2023-02-22T11:39:24;101068.38;;;13.42;100.00
37860;BME280;23698;52.014;5.190;2023-02-22T11:42:20;101061.94;;;14.30;100.00
37860;BME280;23698;52.014;5.190;2023-02-22T11:45:11;101056.28;;;14.38;100.00
37860;BME280;23698;52.014;5.190;2023-02-22T11:48:00;101049.81;;;14.19;100.00
37860;BME280;23698;52.014;5.190;2023-02-22T11:50:56;101052.06;;;14.49;100.00
37860;BME280;23698;52.014;5.190;2023-02-22T11:53:59;101051.03;;;13.63;100.00
37860;BME280;23698;52.014;5.190;2023-02-22T11:56:51;101041.63;;;13.79;100.00
37860;BME280;23698;52.014;5.190;2023-02-22T11:59:46;101030.06;;;14.44;100.00
37860;BME280;23698;52.014;5.190;2023-02-22T12:02:53;101038.59;;;14.74;100.00
37860;BME280;23698;52.014;5.190;2023-02-22T12:06:01;101034.91;;;14.02;100.00
37860;BME280;23698;52.014;5.190;2023-02-22T12:09:02;101043.25;;;14.60;100.00
37860;BME280;23698;52.014;5.190;2023-02-22T12:12:01;101041.59;;;15.11;100.00
37860;BME280;23698;52.014;5.190;2023-02-22T12:14:59;101038.69;;;13.74;100.00
37860;BME280;23698;52.014;5.190;2023-02-22T12:17:52;101037.44;;;15.47;100.00
37860;BME280;23698;52.014;5.190;2023-02-22T12:20:47;101034.78;;;15.27;100.00
37860;BME280;23698;52.014;5.190;2023-02-22T12:23:42;101030.41;;;14.74;100.00
37860;BME280;23698;52.014;5.190;2023-02-22T12:26:36;101015.78;;;15.45;100.00
37860;BME280;23698;52.014;5.190;2023-02-22T12:29:27;101018.06;;;14.58;100.00
37860;BME280;23698;52.014;5.190;2023-02-22T12:32:22;101015.38;;;15.10;100.00
37860;BME280;23698;52.014;5.190;2023-02-22T12:35:18;101010.56;;;15.76;100.00
37860;BME280;23698;52.014;5.190;2023-02-22T12:38:12;101014.78;;;15.72;100.00
37860;BME280;23698;52.014;5.190;2023-02-22T12:41:04;101014.75;;;15.08;100.00
37860;BME280;23698;52.014;5.190;2023-02-22T12:43:59;101009.06;;;14.31;100.00
37860;BME280;23698;52.014;5.190;2023-02-22T12:46:49;101007.84;;;15.37;100.00
37860;BME280;23698;52.014;5.190;2023-02-22T12:49:39;101009.53;;;15.00;100.00
37860;BME280;23698;52.014;5.190;2023-02-22T12:52:37;101009.94;;;14.38;100.00
37860;BME280;23698;52.014;5.190;2023-02-22T12:55:28;101010.72;;;15.81;100.00
37860;BME280;23698;52.014;5.190;2023-02-22T12:58:20;101014.16;;;15.38;100.00
37860;BME280;23698;52.014;5.190;2023-02-22T13:01:15;101012.59;;;15.55;100.00
37860;BME280;23698;52.014;5.190;2023-02-22T13:04:04;101010.28;;;15.84;100.00
37860;BME280;23698;52.014;5.190;2023-02-22T13:07:18;101016.09;;;15.62;100.00
37860;BME280;23698;52.014;5.190;2023-02-22T13:10:30;101021.78;;;15.61;100.00
37860;BME280;23698;52.014;5.190;2023-02-22T13:13:23;101011.16;;;16.28;100.00
37860;BME280;23698;52.014;5.190;2023-02-22T13:16:23;101006.00;;;16.38;100.00
37860;BME280;23698;52.014;5.190;2023-02-22T13:19:33;101016.38;;;15.86;100.00
37860;BME280;23698;52.014;5.190;2023-02-22T13:22:26;101016.41;;;16.67;100.00
37860;BME280;23698;52.014;5.190;2023-02-22T13:25:19;101019.34;;;16.10;100.00
37860;BME280;23698;52.014;5.190;2023-02-22T13:28:17;101028.44;;;15.72;100.00
37860;BME280;23698;52.014;5.190;2023-02-22T13:31:16;101014.44;;;16.37;100.00
37860;BME280;23698;52.014;5.190;2023-02-22T13:34:32;101030.25;;;15.53;100.00
37860;BME280;23698;52.014;5.190;2023-02-22T13:37:39;101021.00;;;15.85;100.00
37860;BME280;23698;52.014;5.190;2023-02-22T13:44:15;101009.81;;;16.93;100.00
37860;BME280;23698;52.014;5.190;2023-02-22T13:47:32;101017.06;;;16.87;100.00
37860;BME280;23698;52.014;5.190;2023-02-22T13:51:02;101022.66;;;16.74;100.00
37860;BME280;23698;52.014;5.190;2023-02-22T13:53:53;101018.84;;;17.12;100.00
37860;BME280;23698;52.014;5.190;2023-02-22T13:56:43;101023.94;;;16.09;100.00
37860;BME280;23698;52.014;5.190;2023-02-22T13:59:33;101026.13;;;13.93;100.00
37860;BME280;23698;52.014;5.190;2023-02-22T14:03:03;101025.22;;;13.39;100.00
37860;BME280;23698;52.014;5.190;2023-02-22T14:05:53;101015.75;;;13.35;100.00
37860;BME280;23698;52.014;5.190;2023-02-22T14:08:45;101015.41;;;13.58;100.00
37860;BME280;23698;52.014;5.190;2023-02-22T14:11:41;101016.47;;;13.70;100.00
37860;BME280;23698;52.014;5.190;2023-02-22T14:14:30;101014.63;;;14.89;100.00
37860;BME280;23698;52.014;5.190;2023-02-22T14:17:22;101023.31;;;14.53;100.00
37860;BME280;23698;52.014;5.190;2023-02-22T14:20:25;101031.97;;;15.47;100.00
37860;BME280;23698;52.014;5.190;2023-02-22T14:23:31;101032.78;;;14.44;100.00
37860;BME280;23698;52.014;5.190;2023-02-22T14:26:24;101038.66;;;15.51;100.00
37860;BME280;23698;52.014;5.190;2023-02-22T14:29:16;101044.19;;;14.99;100.00
37860;BME280;23698;52.014;5.190;2023-02-22T14:32:06;101037.69;;;15.71;100.00
37860;BME280;23698;52.014;5.190;2023-02-22T14:34:55;101038.44;;;14.49;100.00
37860;BME280;23698;52.014;5.190;2023-02-22T14:37:51;101039.59;;;14.86;100.00
37860;BME280;23698;52.014;5.190;2023-02-22T14:40:41;101033.56;;;14.71;100.00
37860;BME280;23698;52.014;5.190;2023-02-22T14:43:35;101039.19;;;14.83;100.00
37860;BME280;23698;52.014;5.190;2023-02-22T14:46:26;101033.78;;;15.92;100.00
37860;BME280;23698;52.014;5.190;2023-02-22T14:49:14;101037.50;;;16.22;100.00
37860;BME280;23698;52.014;5.190;2023-02-22T14:52:06;101036.94;;;15.18;100.00
37860;BME280;23698;52.014;5.190;2023-02-22T14:55:10;101030.84;;;14.71;100.00
37860;BME280;23698;52.014;5.190;2023-02-22T14:58:02;101034.56;;;15.35;100.00
37860;BME280;23698;52.014;5.190;2023-02-22T15:00:52;101033.00;;;15.07;100.00